sensor_id;sensor_type;location;lat;lon;timestamp;pressure;altitude;pressure_sealevel;temperature;humidity
42591;BME280;28218;53.342;-6.216;2022-12-05T00:01:52;102161.91;;;7.99;100.00
42591;BME280;28218;53.342;-6.216;2022-12-05T00:04:20;102165.28;;;8.01;100.00
42591;BME280;28218;53.342;-6.216;2022-12-05T00:06:50;102162.72;;;7.99;100.00
42591;BME280;28218;53.342;-6.216;2022-12-05T00:09:18;102168.81;;;8.00;100.00
42591;BME280;28218;53.342;-6.216;2022-12-05T00:11:46;102172.19;;;8.02;100.00
42591;BME280;28218;53.342;-6.216;2022-12-05T00:14:14;102160.03;;;8.01;100.00
42591;BME280;28218;53.342;-6.216;2022-12-05T00:16:43;102159.19;;;8.00;100.00
42591;BME280;28218;53.342;-6.216;2022-12-05T00:19:13;102164.44;;;8.00;100.00
42591;BME280;28218;53.342;-6.216;2022-12-05T00:21:42;102160.03;;;8.01;100.00
42591;BME280;28218;53.342;-6.216;2022-12-05T00:24:13;102160.94;;;8.00;100.00
42591;BME280;28218;53.342;-6.216;2022-12-05T00:26:42;102160.94;;;8.00;100.00
42591;BME280;28218;53.342;-6.216;2022-12-05T00:29:10;102164.31;;;8.02;100.00
42591;BME280;28218;53.342;-6.216;2022-12-05T00:31:39;102166.47;;;8.08;100.00
42591;BME280;28218;53.342;-6.216;2022-12-05T00:34:07;102158.59;;;8.08;100.00
42591;BME280;28218;53.342;-6.216;2022-12-05T00:36:36;102165.63;;;8.07;100.00
42591;BME280;28218;53.342;-6.216;2022-12-05T00:39:06;102166.25;;;8.11;100.00
42591;BME280;28218;53.342;-6.216;2022-12-05T00:41:36;102172.06;;;8.03;100.00
42591;BME280;28218;53.342;-6.216;2022-12-05T00:44:04;102166.59;;;8.06;100.00
42591;BME280;28218;53.342;-6.216;2022-12-05T00:46:34;102170.25;;;8.04;100.00
42591;BME280;28218;53.342;-6.216;2022-12-05T00:49:03;102167.75;;;8.02;100.00
42591;BME280;28218;53.342;-6.216;2022-12-05T00:51:34;102169.56;;;8.02;100.00
42591;BME280;28218;53.342;-6.216;2022-12-05T00:54:05;102166.72;;;8.05;100.00
42591;BME280;28218;53.342;-6.216;2022-12-05T00:56:36;102188.06;;;8.00;100.00
42591;BME280;28218;53.342;-6.216;2022-12-05T00:59:05;102192.56;;;7.98;100.00
42591;BME280;28218;53.342;-6.216;2022-12-05T01:01:35;102190.91;;;7.97;100.00
42591;BME280;28218;53.342;-6.216;2022-12-05T01:04:05;102195.41;;;7.95;100.00
42591;BME280;28218;53.342;-6.216;2022-12-05T01:06:34;102208.19;;;8.00;100.00
42591;BME280;28218;53.342;-6.216;2022-12-05T01:09:03;102218.81;;;7.98;100.00
42591;BME280;28218;53.342;-6.216;2022-12-05T01:11:32;102207.47;;;7.98;100.00
42591;BME280;28218;53.342;-6.216;2022-12-05T01:14:08;102219.03;;;7.95;100.00
42591;BME280;28218;53.342;-6.216;2022-12-05T01:16:38;102223.56;;;7.93;100.00
42591;BME280;28218;53.342;-6.216;2022-12-05T01:19:10;102224.66;;;7.90;100.00
42591;BME280;28218;53.342;-6.216;2022-12-05T01:21:38;102230.34;;;7.84;100.00
42591;BME280;28218;53.342;-6.216;2022-12-05T01:24:07;102237.59;;;7.81;100.00
42591;BME280;28218;53.342;-6.216;2022-12-05T01:26:35;102235.91;;;7.80;100.00
42591;BME280;28218;53.342;-6.216;2022-12-05T01:29:04;102235.31;;;7.76;100.00
42591;BME280;28218;53.342;-6.216;2022-12-05T01:31:35;102246.75;;;7.75;100.00
42591;BME280;28218;53.342;-6.216;2022-12-05T01:34:04;102239.34;;;7.69;100.00
42591;BME280;28218;53.342;-6.216;2022-12-05T01:36:33;102235.16;;;7.66;100.00
42591;BME280;28218;53.342;-6.216;2022-12-05T01:39:02;102242.19;;;7.66;100.00
42591;BME280;28218;53.342;-6.216;2022-12-05T01:41:32;102250.78;;;7.68;100.00
42591;BME280;28218;53.342;-6.216;2022-12-05T01:44:03;102246.50;;;7.67;100.00
42591;BME280;28218;53.342;-6.216;2022-12-05T01:46:35;102248.16;;;7.68;100.00
42591;BME280;28218;53.342;-6.216;2022-12-05T01:49:06;102243.13;;;7.65;100.00
42591;BME280;28218;53.342;-6.216;2022-12-05T01:51:38;102245.75;;;7.65;100.00
42591;BME280;28218;53.342;-6.216;2022-12-05T01:54:08;102242.19;;;7.66;100.00
42591;BME280;28218;53.342;-6.216;2022-12-05T01:56:39;102243.97;;;7.65;100.00
42591;BME280;28218;53.342;-6.216;2022-12-05T01:59:10;102243.00;;;7.66;100.00
42591;BME280;28218;53.342;-6.216;2022-12-05T02:01:40;102254.25;;;7.68;100.00
42591;BME280;28218;53.342;-6.216;2022-12-05T02:04:09;102250.78;;;7.68;100.00
42591;BME280;28218;53.342;-6.216;2022-12-05T02:06:37;102250.56;;;7.71;100.00
42591;BME280;28218;53.342;-6.216;2022-12-05T02:09:05;102255.72;;;7.73;100.00
42591;BME280;28218;53.342;-6.216;2022-12-05T02:11:36;102264.91;;;7.78;100.00
42591;BME280;28218;53.342;-6.216;2022-12-05T02:14:18;102266.25;;;7.84;100.00
42591;BME280;28218;53.342;-6.216;2022-12-05T02:16:55;102271.63;;;7.82;100.00
42591;BME280;28218;53.342;-6.216;2022-12-05T02:20:02;102276.63;;;7.85;100.00
42591;BME280;28218;53.342;-6.216;2022-12-05T02:22:59;102275.44;;;7.89;100.00
42591;BME280;28218;53.342;-6.216;2022-12-05T02:25:59;102281.19;;;7.94;100.00
42591;BME280;28218;53.342;-6.216;2022-12-05T02:28:56;102286.44;;;7.94;100.00
42591;BME280;28218;53.342;-6.216;2022-12-05T02:31:33;102296.72;;;7.98;100.00
42591;BME280;28218;53.342;-6.216;2022-12-05T02:34:07;102295.06;;;7.97;100.00
42591;BME280;28218;53.342;-6.216;2022-12-05T02:36:41;102300.31;;;7.97;100.00
42591;BME280;28218;53.342;-6.216;2022-12-05T02:39:14;102307.06;;;7.88;100.00
42591;BME280;28218;53.342;-6.216;2022-12-05T02:41:48;102302.88;;;7.85;100.00
42591;BME280;28218;53.342;-6.216;2022-12-05T02:44:22;102300.25;;;7.85;100.00
42591;BME280;28218;53.342;-6.216;2022-12-05T02:46:57;102298.69;;;7.83;100.00
42591;BME280;28218;53.342;-6.216;2022-12-05T02:49:30;102296.19;;;7.81;100.00
42591;BME280;28218;53.342;-6.216;2022-12-05T02:52:02;102299.75;;;7.80;100.00
42591;BME280;28218;53.342;-6.216;2022-12-05T02:54:35;102307.59;;;7.80;100.00
42591;BME280;28218;53.342;-6.216;2022-12-05T02:57:05;102305.22;;;7.77;100.00
42591;BME280;28218;53.342;-6.216;2022-12-05T02:59:34;102302.69;;;7.76;100.00
42591;BME280;28218;53.342;-6.216;2022-12-05T03:02:04;102301.16;;;7.73;100.00
42591;BME280;28218;53.342;-6.216;2022-12-05T03:04:34;102296.09;;;7.70;100.00
42591;BME280;28218;53.342;-6.216;2022-12-05T03:07:06;102291.38;;;7.75;100.00
42591;BME280;28218;53.342;-6.216;2022-12-05T03:09:37;102295.66;;;7.76;100.00
42591;BME280;28218;53.342;-6.216;2022-12-05T03:12:10;102292.00;;;7.79;100.00
42591;BME280;28218;53.342;-6.216;2022-12-05T03:14:43;102303.78;;;7.73;100.00
42591;BME280;28218;53.342;-6.216;2022-12-05T03:17:19;102296.53;;;7.77;100.00
42591;BME280;28218;53.342;-6.216;2022-12-05T03:19:54;102300.19;;;7.74;100.00
42591;BME280;28218;53.342;-6.216;2022-12-05T03:22:30;102302.59;;;7.77;100.00
42591;BME280;28218;53.342;-6.216;2022-12-05T03:24:59;102307.03;;;7.77;100.00
42591;BME280;28218;53.342;-6.216;2022-12-05T03:27:34;102303.28;;;7.68;100.00
42591;BME280;28218;53.342;-6.216;2022-12-05T03:30:08;102319.00;;;7.68;100.00
42591;BME280;28218;53.342;-6.216;2022-12-05T03:32:41;102307.88;;;7.64;100.00
42591;BME280;28218;53.342;-6.216;2022-12-05T03:35:17;102308.50;;;7.68;100.00
42591;BME280;28218;53.342;-6.216;2022-12-05T03:37:52;102308.50;;;7.68;100.00
42591;BME280;28218;53.342;-6.216;2022-12-05T03:40:29;102302.44;;;7.67;100.00
42591;BME280;28218;53.342;-6.216;2022-12-05T03:43:03;102311.13;;;7.68;100.00
42591;BME280;28218;53.342;-6.216;2022-12-05T03:45:38;102311.84;;;7.70;100.00
42591;BME280;28218;53.342;-6.216;2022-12-05T03:48:15;102305.66;;;7.71;100.00
42591;BME280;28218;53.342;-6.216;2022-12-05T03:50:47;102306.72;;;7.68;100.00
42591;BME280;28218;53.342;-6.216;2022-12-05T03:53:22;102308.22;;;7.60;100.00
42591;BME280;28218;53.342;-6.216;2022-12-05T03:55:57;102302.66;;;7.52;100.00
42591;BME280;28218;53.342;-6.216;2022-12-05T03:58:32;102303.13;;;7.46;100.00
42591;BME280;28218;53.342;-6.216;2022-12-05T04:01:04;102289.50;;;7.40;100.00
42591;BME280;28218;53.342;-6.216;2022-12-05T04:03:39;102280.47;;;7.45;100.00
42591;BME280;28218;53.342;-6.216;2022-12-05T04:06:14;102282.13;;;7.46;100.00
42591;BME280;28218;53.342;-6.216;2022-12-05T04:08:47;102272.16;;;7.51;100.00
42591;BME280;28218;53.342;-6.216;2022-12-05T04:11:20;102271.00;;;7.55;100.00
42591;BME280;28218;53.342;-6.216;2022-12-05T04:13:52;102284.31;;;7.52;100.00
42591;BME280;28218;53.342;-6.216;2022-12-05T04:16:22;102285.06;;;7.54;100.00
42591;BME280;28218;53.342;-6.216;2022-12-05T04:19:15;102279.06;;;7.52;100.00
42591;BME280;28218;53.342;-6.216;2022-12-05T04:21:47;102279.31;;;7.49;100.00
42591;BME280;28218;53.342;-6.216;2022-12-05T04:24:18;102281.63;;;7.40;100.00
42591;BME280;28218;53.342;-6.216;2022-12-05T04:27:11;102289.56;;;7.52;100.00
42591;BME280;28218;53.342;-6.216;2022-12-05T04:29:47;102278.06;;;7.41;100.00
42591;BME280;28218;53.342;-6.216;2022-12-05T04:32:24;102271.03;;;7.42;100.00
42591;BME280;28218;53.342;-6.216;2022-12-05T04:34:58;102275.31;;;7.43;100.00
42591;BME280;28218;53.342;-6.216;2022-12-05T04:37:30;102264.63;;;7.46;100.00
42591;BME280;28218;53.342;-6.216;2022-12-05T04:40:06;102259.16;;;7.49;100.00
42591;BME280;28218;53.342;-6.216;2022-12-05T04:42:37;102264.16;;;7.52;100.00
42591;BME280;28218;53.342;-6.216;2022-12-05T04:45:10;102261.44;;;7.54;100.00
42591;BME280;28218;53.342;-6.216;2022-12-05T04:47:42;102258.31;;;7.49;100.00
42591;BME280;28218;53.342;-6.216;2022-12-05T04:50:14;102272.38;;;7.48;100.00
42591;BME280;28218;53.342;-6.216;2022-12-05T04:52:47;102274.78;;;7.51;100.00
42591;BME280;28218;53.342;-6.216;2022-12-05T04:55:20;102268.69;;;7.50;100.00
42591;BME280;28218;53.342;-6.216;2022-12-05T04:58:00;102277.84;;;7.45;100.00
42591;BME280;28218;53.342;-6.216;2022-12-05T05:00:34;102267.56;;;7.41;100.00
42591;BME280;28218;53.342;-6.216;2022-12-05T05:03:09;102251.13;;;7.39;100.00
42591;BME280;28218;53.342;-6.216;2022-12-05T05:05:44;102266.09;;;7.37;100.00
42591;BME280;28218;53.342;-6.216;2022-12-05T05:08:18;102280.88;;;7.38;100.00
42591;BME280;28218;53.342;-6.216;2022-12-05T05:10:53;102280.06;;;7.38;100.00
42591;BME280;28218;53.342;-6.216;2022-12-05T05:13:24;102295.19;;;7.34;100.00
42591;BME280;28218;53.342;-6.216;2022-12-05T05:15:53;102296.09;;;7.33;100.00
42591;BME280;28218;53.342;-6.216;2022-12-05T05:18:21;102290.03;;;7.33;100.00
42591;BME280;28218;53.342;-6.216;2022-12-05T05:20:51;102284.19;;;7.29;100.00
42591;BME280;28218;53.342;-6.216;2022-12-05T05:23:19;102289.53;;;7.28;100.00
42591;BME280;28218;53.342;-6.216;2022-12-05T05:25:52;102285.13;;;7.28;100.00
42591;BME280;28218;53.342;-6.216;2022-12-05T05:28:20;102298.13;;;7.30;100.00
42591;BME280;28218;53.342;-6.216;2022-12-05T05:30:49;102298.97;;;7.30;100.00
42591;BME280;28218;53.342;-6.216;2022-12-05T05:33:17;102299.16;;;7.27;100.00
42591;BME280;28218;53.342;-6.216;2022-12-05T05:35:45;102292.25;;;7.26;100.00
42591;BME280;28218;53.342;-6.216;2022-12-05T05:38:15;102287.97;;;7.25;100.00
42591;BME280;28218;53.342;-6.216;2022-12-05T05:40:43;102294.13;;;7.24;100.00
42591;BME280;28218;53.342;-6.216;2022-12-05T05:43:11;102293.22;;;7.25;100.00
42591;BME280;28218;53.342;-6.216;2022-12-05T05:45:39;102297.38;;;7.28;100.00
42591;BME280;28218;53.342;-6.216;2022-12-05T05:48:07;102294.56;;;7.31;100.00
42591;BME280;28218;53.342;-6.216;2022-12-05T05:50:35;102302.94;;;7.36;100.00
42591;BME280;28218;53.342;-6.216;2022-12-05T05:53:04;102310.47;;;7.40;100.00
42591;BME280;28218;53.342;-6.216;2022-12-05T05:55:33;102320.13;;;7.40;100.00
42591;BME280;28218;53.342;-6.216;2022-12-05T05:58:01;102322.84;;;7.38;100.00
42591;BME280;28218;53.342;-6.216;2022-12-05T06:00:29;102321.91;;;7.39;100.00
42591;BME280;28218;53.342;-6.216;2022-12-05T06:02:57;102320.97;;;7.40;100.00
42591;BME280;28218;53.342;-6.216;2022-12-05T06:05:26;102319.19;;;7.41;100.00
42591;BME280;28218;53.342;-6.216;2022-12-05T06:07:54;102318.34;;;7.40;100.00
42591;BME280;28218;53.342;-6.216;2022-12-05T06:10:22;102323.59;;;7.40;100.00
42591;BME280;28218;53.342;-6.216;2022-12-05T06:12:52;102318.47;;;7.39;100.00
42591;BME280;28218;53.342;-6.216;2022-12-05T06:15:20;102320.22;;;7.38;100.00
42591;BME280;28218;53.342;-6.216;2022-12-05T06:17:48;102321.69;;;7.42;100.00
42591;BME280;28218;53.342;-6.216;2022-12-05T06:20:17;102325.06;;;7.45;100.00
42591;BME280;28218;53.342;-6.216;2022-12-05T06:22:45;102329.34;;;7.46;100.00
42591;BME280;28218;53.342;-6.216;2022-12-05T06:25:13;102335.44;;;7.46;100.00
42591;BME280;28218;53.342;-6.216;2022-12-05T06:27:41;102331.34;;;7.42;100.00
42591;BME280;28218;53.342;-6.216;2022-12-05T06:30:11;102326.94;;;7.42;100.00
42591;BME280;28218;53.342;-6.216;2022-12-05T06:32:40;102322.53;;;7.43;100.00
42591;BME280;28218;53.342;-6.216;2022-12-05T06:35:08;102312.66;;;7.47;100.00
42591;BME280;28218;53.342;-6.216;2022-12-05T06:37:41;102309.31;;;7.45;100.00
42591;BME280;28218;53.342;-6.216;2022-12-05T06:40:11;102296.91;;;7.47;100.00
42591;BME280;28218;53.342;-6.216;2022-12-05T06:42:39;102292.50;;;7.47;100.00
42591;BME280;28218;53.342;-6.216;2022-12-05T06:45:08;102301.44;;;7.45;100.00
42591;BME280;28218;53.342;-6.216;2022-12-05T06:47:37;102293.59;;;7.45;100.00
42591;BME280;28218;53.342;-6.216;2022-12-05T06:50:07;102301.44;;;7.45;100.00
42591;BME280;28218;53.342;-6.216;2022-12-05T06:52:35;102303.84;;;7.48;100.00
42591;BME280;28218;53.342;-6.216;2022-12-05T06:55:04;102312.22;;;7.53;100.00
42591;BME280;28218;53.342;-6.216;2022-12-05T06:57:32;102313.91;;;7.54;100.00
42591;BME280;28218;53.342;-6.216;2022-12-05T07:00:01;102312.00;;;7.56;100.00
42591;BME280;28218;53.342;-6.216;2022-12-05T07:02:44;102319.75;;;7.57;100.00
42591;BME280;28218;53.342;-6.216;2022-12-05T07:05:13;102331.94;;;7.58;100.00
42591;BME280;28218;53.342;-6.216;2022-12-05T07:07:41;102339.59;;;7.61;100.00
42591;BME280;28218;53.342;-6.216;2022-12-05T07:10:09;102333.41;;;7.62;100.00
42591;BME280;28218;53.342;-6.216;2022-12-05T07:12:37;102359.09;;;7.57;100.00
42591;BME280;28218;53.342;-6.216;2022-12-05T07:15:06;102344.63;;;7.52;100.00
42591;BME280;28218;53.342;-6.216;2022-12-05T07:17:35;102355.56;;;7.46;100.00
42591;BME280;28218;53.342;-6.216;2022-12-05T07:20:07;102365.56;;;7.40;100.00
42591;BME280;28218;53.342;-6.216;2022-12-05T07:22:36;102358.84;;;7.36;100.00
42591;BME280;28218;53.342;-6.216;2022-12-05T07:25:05;102364.91;;;7.37;100.00
42591;BME280;28218;53.342;-6.216;2022-12-05T07:27:33;102364.09;;;7.36;100.00
42591;BME280;28218;53.342;-6.216;2022-12-05T07:30:01;102361.59;;;7.35;100.00
42591;BME280;28218;53.342;-6.216;2022-12-05T07:32:31;102365.03;;;7.35;100.00
42591;BME280;28218;53.342;-6.216;2022-12-05T07:35:00;102371.84;;;7.38;100.00
42591;BME280;28218;53.342;-6.216;2022-12-05T07:37:29;102375.22;;;7.40;100.00
42591;BME280;28218;53.342;-6.216;2022-12-05T07:39:57;102376.88;;;7.41;100.00
42591;BME280;28218;53.342;-6.216;2022-12-05T07:42:26;102371.44;;;7.44;100.00
42591;BME280;28218;53.342;-6.216;2022-12-05T07:44:54;102375.72;;;7.45;100.00
42591;BME280;28218;53.342;-6.216;2022-12-05T07:47:23;102389.56;;;7.47;100.00
42591;BME280;28218;53.342;-6.216;2022-12-05T07:49:51;102392.19;;;7.47;100.00
42591;BME280;28218;53.342;-6.216;2022-12-05T07:52:19;102386.22;;;7.45;100.00
42591;BME280;28218;53.342;-6.216;2022-12-05T07:54:48;102385.47;;;7.43;100.00
42591;BME280;28218;53.342;-6.216;2022-12-05T07:57:16;102403.22;;;7.39;100.00
42591;BME280;28218;53.342;-6.216;2022-12-05T07:59:45;102397.03;;;7.40;100.00
42591;BME280;28218;53.342;-6.216;2022-12-05T08:02:13;102400.91;;;7.35;100.00
42591;BME280;28218;53.342;-6.216;2022-12-05T08:04:41;102398.50;;;7.32;100.00
42591;BME280;28218;53.342;-6.216;2022-12-05T08:07:09;102399.75;;;7.26;100.00
42591;BME280;28218;53.342;-6.216;2022-12-05T08:09:38;102411.41;;;7.22;100.00
42591;BME280;28218;53.342;-6.216;2022-12-05T08:12:07;102402.81;;;7.20;100.00
42591;BME280;28218;53.342;-6.216;2022-12-05T08:14:35;102393.47;;;7.16;100.00
42591;BME280;28218;53.342;-6.216;2022-12-05T08:17:03;102395.56;;;7.11;100.00
42591;BME280;28218;53.342;-6.216;2022-12-05T08:19:32;102393.03;;;7.09;100.00
42591;BME280;28218;53.342;-6.216;2022-12-05T08:22:00;102395.34;;;7.14;100.00
42591;BME280;28218;53.342;-6.216;2022-12-05T08:24:28;102384.53;;;7.18;100.00
42591;BME280;28218;53.342;-6.216;2022-12-05T08:26:56;102373.09;;;7.20;100.00
42591;BME280;28218;53.342;-6.216;2022-12-05T08:29:26;102372.28;;;7.19;100.00
42591;BME280;28218;53.342;-6.216;2022-12-05T08:31:54;102379.22;;;7.20;100.00
42591;BME280;28218;53.342;-6.216;2022-12-05T08:34:22;102371.34;;;7.20;100.00
42591;BME280;28218;53.342;-6.216;2022-12-05T08:36:50;102374.81;;;7.21;100.00
42591;BME280;28218;53.342;-6.216;2022-12-05T08:39:19;102381.59;;;7.23;100.00
42591;BME280;28218;53.342;-6.216;2022-12-05T08:41:47;102380.47;;;7.27;100.00
42591;BME280;28218;53.342;-6.216;2022-12-05T08:44:16;102384.66;;;7.30;100.00
42591;BME280;28218;53.342;-6.216;2022-12-05T08:46:48;102390.63;;;7.32;100.00
42591;BME280;28218;53.342;-6.216;2022-12-05T08:49:17;102382.63;;;7.33;100.00
42591;BME280;28218;53.342;-6.216;2022-12-05T08:51:45;102382.56;;;7.35;100.00
42591;BME280;28218;53.342;-6.216;2022-12-05T08:54:14;102390.31;;;7.36;100.00
42591;BME280;28218;53.342;-6.216;2022-12-05T08:56:42;102391.03;;;7.38;100.00
42591;BME280;28218;53.342;-6.216;2022-12-05T08:59:10;102388.41;;;7.38;100.00
42591;BME280;28218;53.342;-6.216;2022-12-05T09:01:38;102388.72;;;7.34;100.00
42591;BME280;28218;53.342;-6.216;2022-12-05T09:04:09;102390.19;;;7.38;100.00
42591;BME280;28218;53.342;-6.216;2022-12-05T09:06:39;102402.47;;;7.37;100.00
42591;BME280;28218;53.342;-6.216;2022-12-05T09:09:09;102400.78;;;7.36;100.00
42591;BME280;28218;53.342;-6.216;2022-12-05T09:11:41;102395.34;;;7.27;100.00
42591;BME280;28218;53.342;-6.216;2022-12-05T09:14:12;102404.16;;;7.26;100.00
42591;BME280;28218;53.342;-6.216;2022-12-05T09:16:42;102399.66;;;7.28;100.00
42591;BME280;28218;53.342;-6.216;2022-12-05T09:19:15;102392.53;;;7.30;100.00
42591;BME280;28218;53.342;-6.216;2022-12-05T09:21:43;102402.06;;;7.31;100.00
42591;BME280;28218;53.342;-6.216;2022-12-05T09:24:12;102407.19;;;7.32;100.00
42591;BME280;28218;53.342;-6.216;2022-12-05T09:26:41;102411.72;;;7.30;100.00
42591;BME280;28218;53.342;-6.216;2022-12-05T09:29:10;102394.91;;;7.33;100.00
42591;BME280;28218;53.342;-6.216;2022-12-05T09:31:44;102401.84;;;7.34;100.00
42591;BME280;28218;53.342;-6.216;2022-12-05T09:34:15;102403.31;;;7.38;100.00
42591;BME280;28218;53.342;-6.216;2022-12-05T09:36:44;102408.22;;;7.42;100.00
42591;BME280;28218;53.342;-6.216;2022-12-05T09:39:15;102410.66;;;7.46;100.00
42591;BME280;28218;53.342;-6.216;2022-12-05T09:44:40;102420.44;;;7.43;100.00
42591;BME280;28218;53.342;-6.216;2022-12-05T09:47:16;102414.22;;;7.45;100.00
42591;BME280;28218;53.342;-6.216;2022-12-05T09:49:51;102420.81;;;7.50;100.00
42591;BME280;28218;53.342;-6.216;2022-12-05T09:52:24;102418.59;;;7.57;100.00
42591;BME280;28218;53.342;-6.216;2022-12-05T09:54:54;102415.78;;;7.60;100.00
42591;BME280;28218;53.342;-6.216;2022-12-05T09:57:29;102423.53;;;7.61;100.00
42591;BME280;28218;53.342;-6.216;2022-12-05T10:00:00;102425.31;;;7.61;100.00
42591;BME280;28218;53.342;-6.216;2022-12-05T10:02:39;102434.66;;;7.65;100.00
42591;BME280;28218;53.342;-6.216;2022-12-05T10:05:17;102437.06;;;7.68;100.00
42591;BME280;28218;53.342;-6.216;2022-12-05T10:07:51;102428.13;;;7.71;100.00
42591;BME280;28218;53.342;-6.216;2022-12-05T10:10:33;102434.72;;;7.76;100.00
42591;BME280;28218;53.342;-6.216;2022-12-05T10:13:24;102431.78;;;7.81;100.00
42591;BME280;28218;53.342;-6.216;2022-12-05T10:15:59;102445.44;;;7.86;100.00
42591;BME280;28218;53.342;-6.216;2022-12-05T10:18:31;102432.00;;;7.90;100.00
42591;BME280;28218;53.342;-6.216;2022-12-05T10:21:12;102437.00;;;7.93;100.00
42591;BME280;28218;53.342;-6.216;2022-12-05T10:23:52;102444.56;;;7.98;100.00
42591;BME280;28218;53.342;-6.216;2022-12-05T10:26:27;102462.09;;;7.98;100.00
42591;BME280;28218;53.342;-6.216;2022-12-05T10:29:01;102458.44;;;8.00;100.00
42591;BME280;28218;53.342;-6.216;2022-12-05T10:31:36;102458.31;;;8.02;100.00
42591;BME280;28218;53.342;-6.216;2022-12-05T10:34:11;102466.63;;;7.96;100.00
42591;BME280;28218;53.342;-6.216;2022-12-05T10:36:53;102465.56;;;7.98;100.00
42591;BME280;28218;53.342;-6.216;2022-12-05T10:39:22;102459.34;;;7.99;100.00
42591;BME280;28218;53.342;-6.216;2022-12-05T10:41:50;102474.91;;;8.02;100.00
42591;BME280;28218;53.342;-6.216;2022-12-05T10:44:18;102477.19;;;8.07;100.00
42591;BME280;28218;53.342;-6.216;2022-12-05T10:46:47;102483.16;;;8.09;100.00
42591;BME280;28218;53.342;-6.216;2022-12-05T10:49:17;102477.91;;;8.09;100.00
42591;BME280;28218;53.342;-6.216;2022-12-05T10:51:47;102484.97;;;8.08;100.00
42591;BME280;28218;53.342;-6.216;2022-12-05T10:54:18;102481.50;;;8.08;100.00
42591;BME280;28218;53.342;-6.216;2022-12-05T10:56:48;102492.94;;;8.07;100.00
42591;BME280;28218;53.342;-6.216;2022-12-05T10:59:19;102494.41;;;8.11;100.00
42591;BME280;28218;53.342;-6.216;2022-12-05T11:01:50;102515.31;;;8.12;100.00
42591;BME280;28218;53.342;-6.216;2022-12-05T11:04:26;102507.34;;;8.14;100.00
42591;BME280;28218;53.342;-6.216;2022-12-05T11:06:58;102509.09;;;8.13;100.00
42591;BME280;28218;53.342;-6.216;2022-12-05T11:09:29;102515.94;;;8.16;100.00
42591;BME280;28218;53.342;-6.216;2022-12-05T11:12:19;102509.22;;;8.12;100.00
42591;BME280;28218;53.342;-6.216;2022-12-05T11:15:00;102511.41;;;8.18;100.00
42591;BME280;28218;53.342;-6.216;2022-12-05T11:17:32;102514.78;;;8.20;100.00
42591;BME280;28218;53.342;-6.216;2022-12-05T11:20:02;102514.97;;;8.17;100.00
42591;BME280;28218;53.342;-6.216;2022-12-05T11:22:41;102517.09;;;8.12;100.00
42591;BME280;28218;53.342;-6.216;2022-12-05T11:25:23;102512.59;;;8.14;100.00
42591;BME280;28218;53.342;-6.216;2022-12-05T11:27:52;102513.97;;;8.07;100.00
42591;BME280;28218;53.342;-6.216;2022-12-05T11:30:28;102503.47;;;8.07;100.00
42591;BME280;28218;53.342;-6.216;2022-12-05T11:33:18;102510.31;;;7.97;100.00
42591;BME280;28218;53.342;-6.216;2022-12-05T11:35:47;102504.53;;;7.91;100.00
42591;BME280;28218;53.342;-6.216;2022-12-05T11:38:21;102502.88;;;7.90;100.00
42591;BME280;28218;53.342;-6.216;2022-12-05T11:40:54;102507.03;;;7.93;100.00
42591;BME280;28218;53.342;-6.216;2022-12-05T11:43:58;102501.69;;;7.94;100.00
42591;BME280;28218;53.342;-6.216;2022-12-05T11:46:35;102496.94;;;8.00;100.00
42591;BME280;28218;53.342;-6.216;2022-12-05T11:49:26;102494.13;;;8.03;100.00
42591;BME280;28218;53.342;-6.216;2022-12-05T11:52:05;102496.28;;;8.09;100.00
42591;BME280;28218;53.342;-6.216;2022-12-05T11:54:55;102507.53;;;8.11;100.00
42591;BME280;28218;53.342;-6.216;2022-12-05T11:57:49;102514.06;;;8.05;100.00
42591;BME280;28218;53.342;-6.216;2022-12-05T12:00:24;102502.94;;;8.02;100.00
42591;BME280;28218;53.342;-6.216;2022-12-05T12:03:23;102508.41;;;7.99;100.00
42591;BME280;28218;53.342;-6.216;2022-12-05T12:06:10;102515.31;;;8.00;100.00
42591;BME280;28218;53.342;-6.216;2022-12-05T12:08:50;102519.72;;;7.99;100.00
42591;BME280;28218;53.342;-6.216;2022-12-05T12:11:30;102515.44;;;7.98;100.00
42591;BME280;28218;53.342;-6.216;2022-12-05T12:14:07;102519.00;;;7.97;100.00
42591;BME280;28218;53.342;-6.216;2022-12-05T12:16:46;102511.03;;;7.99;100.00
42591;BME280;28218;53.342;-6.216;2022-12-05T12:19:33;102513.56;;;8.00;100.00
42591;BME280;28218;53.342;-6.216;2022-12-05T12:22:28;102515.22;;;8.01;100.00
42591;BME280;28218;53.342;-6.216;2022-12-05T12:25:19;102512.19;;;7.94;100.00
42591;BME280;28218;53.342;-6.216;2022-12-05T12:27:58;102525.63;;;7.90;100.00
42591;BME280;28218;53.342;-6.216;2022-12-05T12:30:43;102518.94;;;7.86;100.00
42591;BME280;28218;53.342;-6.216;2022-12-05T12:33:25;102510.44;;;7.82;100.00
42591;BME280;28218;53.342;-6.216;2022-12-05T12:36:00;102504.94;;;7.85;100.00
42591;BME280;28218;53.342;-6.216;2022-12-05T12:38:51;102504.53;;;7.91;100.00
42591;BME280;28218;53.342;-6.216;2022-12-05T12:41:44;102493.09;;;7.92;100.00
42591;BME280;28218;53.342;-6.216;2022-12-05T12:44:39;102494.56;;;7.97;100.00
42591;BME280;28218;53.342;-6.216;2022-12-05T12:47:17;102499.56;;;8.00;100.00
42591;BME280;28218;53.342;-6.216;2022-12-05T12:49:57;102494.84;;;8.05;100.00
42591;BME280;28218;53.342;-6.216;2022-12-05T12:52:43;102509.41;;;8.09;100.00
42591;BME280;28218;53.342;-6.216;2022-12-05T12:55:21;102511.13;;;8.10;100.00
42591;BME280;28218;53.342;-6.216;2022-12-05T12:58:01;102513.44;;;8.14;100.00
42591;BME280;28218;53.342;-6.216;2022-12-05T13:00:41;102524.25;;;8.10;100.00
42591;BME280;28218;53.342;-6.216;2022-12-05T13:03:18;102521.13;;;8.05;100.00
42591;BME280;28218;53.342;-6.216;2022-12-05T13:05:50;102522.28;;;8.01;100.00
42591;BME280;28218;53.342;-6.216;2022-12-05T13:08:23;102532.47;;;7.92;100.00
42591;BME280;28218;53.342;-6.216;2022-12-05T13:10:54;102519.53;;;7.89;100.00
42591;BME280;28218;53.342;-6.216;2022-12-05T13:13:27;102522.06;;;7.91;100.00